Time;durP1;ratioP1;P1;durP2;ratioP2;P2;SDS_P1;SDS_P2;PMS_P1;PMS_P2;Temp;Humidity;BMP_temperature;BMP_pressure;BME280_temperature;BME280_humidity;BME280_pressure;Samples;Min_cycle;Max_cycle;Signal;HPM_P1;HPM_P2
2022/04/05 07:59:22;;;;;;;13.45;8.90;;;;;;;9.41;100.00;100503.91;5257946;28;20412;-67
2022/04/05 08:01:53;;;;;;;34.95;29.05;;;;;;;9.42;100.00;100505.53;5258159;28;20041;-68
2022/04/05 08:04:24;;;;;;;10.07;7.40;;;;;;;9.44;100.00;100503.31;5255225;28;20021;-67
2022/04/05 08:06:56;;;;;;;13.07;8.10;;;;;;;9.48;100.00;100509.91;5257262;28;20053;-67
2022/04/05 08:09:27;;;;;;;13.65;8.68;;;;;;;9.51;100.00;100508.50;5253498;28;20030;-68
2022/04/05 08:11:59;;;;;;;9.95;7.70;;;;;;;9.53;100.00;100501.56;5255151;28;20104;-66
2022/04/05 08:14:31;;;;;;;11.57;7.63;;;;;;;9.58;100.00;100504.28;5257523;28;20512;-66
2022/04/05 08:17:02;;;;;;;13.18;7.53;;;;;;;9.61;100.00;100496.50;5258239;28;20075;-66
2022/04/05 08:19:34;;;;;;;10.90;7.72;;;;;;;9.62;100.00;100503.72;5258637;28;20021;-66
2022/04/05 08:22:06;;;;;;;9.15;7.05;;;;;;;9.67;100.00;100500.91;5257224;28;20021;-66
2022/04/05 08:24:37;;;;;;;10.73;7.05;;;;;;;9.68;100.00;100508.06;5258431;28;20028;-67
2022/04/05 08:27:08;;;;;;;9.02;6.80;;;;;;;9.72;100.00;100514.69;5257438;28;20395;-66
2022/04/05 08:29:41;;;;;;;8.88;6.90;;;;;;;9.73;100.00;100511.63;5257994;28;20028;-67
2022/04/05 08:32:12;;;;;;;12.02;8.70;;;;;;;9.78;100.00;100527.38;5257973;28;20033;-69
2022/04/05 08:34:45;;;;;;;9.48;6.07;;;;;;;9.79;100.00;100520.69;5257331;28;20100;-68
2022/04/05 08:37:16;;;;;;;10.15;6.75;;;;;;;9.82;100.00;100520.13;5257932;28;20029;-68
2022/04/05 08:39:49;;;;;;;8.88;5.88;;;;;;;9.84;100.00;100525.38;5257897;28;20484;-68
2022/04/05 08:42:20;;;;;;;10.15;7.03;;;;;;;9.86;100.00;100515.63;5256686;28;20025;-68
2022/04/05 08:44:52;;;;;;;9.27;6.72;;;;;;;9.91;100.00;100518.34;5258199;28;20021;-68
2022/04/05 08:47:25;;;;;;;6.93;6.25;;;;;;;9.93;100.00;100521.66;5257922;28;20037;-68
2022/04/05 08:49:57;;;;;;;9.52;6.63;;;;;;;9.95;100.00;100524.97;5257165;28;20043;-67
2022/04/05 08:52:28;;;;;;;11.00;8.00;;;;;;;9.97;100.00;100527.44;5257577;28;20096;-68
2022/04/05 08:55:00;;;;;;;7.55;6.40;;;;;;;9.97;100.00;100528.28;5256739;28;20037;-68
2022/04/05 08:57:31;;;;;;;9.25;6.00;;;;;;;9.98;100.00;100529.09;5265078;28;20488;-68
2022/04/05 09:00:06;;;;;;;7.55;6.75;;;;;;;9.98;100.00;100529.91;5257625;28;20036;-69
2022/04/05 09:02:37;;;;;;;10.25;7.28;;;;;;;9.99;100.00;100528.78;5256760;28;20104;-68
2022/04/05 09:05:25;;;;;;;10.07;6.32;;;;;;;10.02;100.00;100536.53;5257130;28;20100;-68
2022/04/05 09:08:17;;;;;;;8.52;6.13;;;;;;;10.06;100.00;100541.50;5252205;28;20033;-69
2022/04/05 09:11:14;;;;;;;7.15;6.45;;;;;;;10.07;100.00;100535.63;5235442;28;20503;-68
2022/04/05 09:13:59;;;;;;;8.45;7.30;;;;;;;10.11;100.00;100541.44;5240046;28;20034;-68
2022/04/05 09:16:33;;;;;;;10.00;7.72;;;;;;;10.08;100.00;100531.75;5242403;28;20068;-69
2022/04/05 09:19:11;;;;;;;9.63;7.15;;;;;;;10.12;100.00;100541.13;5242849;28;20120;-68
2022/04/05 09:21:54;;;;;;;9.65;6.97;;;;;;;10.14;100.00;100538.06;5241684;28;20415;-68
2022/04/05 09:24:33;;;;;;;7.88;7.10;;;;;;;10.14;100.00;100544.44;5241453;28;20032;-66
2022/04/05 09:27:05;;;;;;;10.07;7.45;;;;;;;10.18;100.00;100544.69;5242463;28;20129;-67
2022/04/05 09:29:45;;;;;;;12.88;7.03;;;;;;;10.24;100.00;100549.03;5253379;28;20059;-67
2022/04/05 09:32:37;;;;;;;8.77;7.85;;;;;;;10.20;100.00;100550.72;5241537;28;20053;-69
2022/04/05 09:35:09;;;;;;;10.35;8.00;;;;;;;10.14;100.00;100552.75;5243360;28;20033;-68
2022/04/05 09:37:41;;;;;;;10.10;7.72;;;;;;;10.20;100.00;100553.50;5239798;28;20053;-67
2022/04/05 09:40:35;;;;;;;11.68;7.57;;;;;;;10.21;100.00;100550.44;5239114;28;20060;-70
2022/04/05 09:43:17;;;;;;;11.60;8.45;;;;;;;10.17;100.00;100554.91;5238117;28;20029;-68
2022/04/05 09:46:00;;;;;;;11.55;7.75;;;;;;;10.19;100.00;100551.88;5233931;28;20029;-69
2022/04/05 09:48:35;;;;;;;8.93;7.80;;;;;;;10.20;100.00;100553.50;5250645;28;20033;-69
2022/04/05 09:51:17;;;;;;;10.52;8.48;;;;;;;10.19;100.00;100555.47;5242523;28;20104;-69
2022/04/05 09:53:51;;;;;;;11.13;7.40;;;;;;;10.22;100.00;100554.03;5242490;28;20108;-69
2022/04/05 09:56:34;;;;;;;9.82;7.47;;;;;;;10.24;100.00;100557.34;5242481;28;20025;-67
2022/04/05 09:59:14;;;;;;;11.05;8.18;;;;;;;10.23;100.00;100552.94;5235097;28;20505;-67
2022/04/05 10:01:46;;;;;;;8.25;7.28;;;;;;;10.27;100.00;100553.16;5248230;28;20041;-68
2022/04/05 10:04:18;;;;;;;10.13;7.70;;;;;;;10.26;100.00;100557.88;5241490;28;20025;-68
2022/04/05 10:06:50;;;;;;;10.90;7.97;;;;;;;10.30;100.00;100561.72;5249271;28;20061;-68
2022/04/05 10:09:22;;;;;;;8.55;7.72;;;;;;;10.32;100.00;100555.91;5241756;28;20057;-68
2022/04/05 10:11:56;;;;;;;9.10;7.80;;;;;;;10.29;100.00;100551.78;5241134;28;20027;-68
2022/04/05 10:14:27;;;;;;;8.35;7.55;;;;;;;10.30;100.00;100558.97;5241988;28;20473;-69
2022/04/05 10:16:58;;;;;;;14.82;9.73;;;;;;;10.32;100.00;100553.97;5242442;28;20032;-67
2022/04/05 10:19:31;;;;;;;7.90;7.10;;;;;;;10.34;100.00;100556.44;5241851;28;20033;-69
2022/04/05 10:22:02;;;;;;;14.68;12.35;;;;;;;10.37;100.00;100553.91;5240332;28;20022;-67
2022/04/05 10:24:34;;;;;;;6.53;5.90;;;;;;;10.37;100.00;100559.44;5241823;28;20091;-69
2022/04/05 10:27:06;;;;;;;8.85;6.85;;;;;;;10.47;100.00;100564.03;5241364;28;20018;-67
2022/04/05 10:29:38;;;;;;;10.70;6.47;;;;;;;10.56;100.00;100561.47;5241427;28;20400;-67
2022/04/05 10:32:21;;;;;;;10.10;6.25;;;;;;;10.58;100.00;100561.97;5241804;28;20048;-67
2022/04/05 10:34:56;;;;;;;8.20;6.55;;;;;;;10.60;100.00;100562.50;5241033;28;20037;-68
2022/04/05 10:37:33;;;;;;;10.82;6.10;;;;;;;10.62;100.00;100561.09;5242164;28;20045;-68
2022/04/05 10:40:05;;;;;;;7.25;6.18;;;;;;;10.66;100.00;100558.56;5241139;28;20044;-67
2022/04/05 10:42:44;;;;;;;6.93;6.28;;;;;;;10.73;100.00;100556.22;5240451;28;20030;-67
2022/04/05 10:45:21;;;;;;;7.80;6.03;;;;;;;10.80;100.00;100556.69;5240916;28;20444;-67
2022/04/05 10:48:25;;;;;;;7.78;5.97;;;;;;;10.84;100.00;100551.38;5233066;28;20047;-66
2022/04/05 10:50:59;;;;;;;6.63;4.97;;;;;;;10.87;100.00;100540.50;5240127;28;20087;-67
2022/04/05 10:54:17;;;;;;;5.43;4.90;;;;;;;10.84;100.00;100546.66;5241474;28;20036;-68
2022/04/05 10:56:37;;;;;;;5.47;4.63;;;;;;;10.86;100.00;100558.28;5233232;28;20035;-68
2022/04/05 10:59:15;;;;;;;6.38;5.15;;;;;;;10.86;100.00;100552.72;5240365;28;20041;-69
2022/04/05 11:01:47;;;;;;;5.53;4.97;;;;;;;10.89;100.00;100548.53;5240569;28;20026;-69
2022/04/05 11:04:29;;;;;;;8.25;5.40;;;;;;;10.96;100.00;100545.38;5236134;28;20029;-69
2022/04/05 11:07:03;;;;;;;5.40;4.85;;;;;;;10.96;100.00;100548.16;5236876;28;20531;-68
2022/04/05 11:09:48;;;;;;;8.00;5.18;;;;;;;11.06;100.00;100559.09;5240057;28;20053;-67
2022/04/05 11:12:25;;;;;;;6.50;4.90;;;;;;;11.07;100.00;100555.22;5240400;28;20021;-67
2022/04/05 11:14:58;;;;;;;8.18;5.95;;;;;;;11.06;100.00;100559.09;5244845;28;20030;-67
2022/04/05 11:17:32;;;;;;;21.05;19.02;;;;;;;11.06;100.00;100565.47;5239807;28;20030;-66
2022/04/05 11:20:04;;;;;;;7.90;5.78;;;;;;;11.05;100.00;100565.78;5245182;28;20029;-67
2022/04/05 11:22:38;;;;;;;9.52;6.22;;;;;;;11.09;100.00;100558.50;5239362;28;20033;-67
2022/04/05 11:25:11;;;;;;;5.18;4.68;;;;;;;11.10;100.00;100549.06;5240562;28;20076;-68
2022/04/05 11:27:49;;;;;;;6.20;5.40;;;;;;;11.08;100.00;100559.63;5240648;28;20547;-68
2022/04/05 11:30:23;;;;;;;7.07;5.15;;;;;;;11.06;100.00;100554.38;5235205;28;20531;-68
2022/04/05 11:33:10;;;;;;;5.80;4.80;;;;;;;11.15;100.00;100546.22;5236059;28;20029;-69
2022/04/05 11:35:49;;;;;;;5.95;5.40;;;;;;;11.04;100.00;100551.09;5239881;28;20052;-69
2022/04/05 11:38:21;;;;;;;8.25;5.63;;;;;;;11.07;100.00;100556.03;5234375;28;20072;-69
2022/04/05 11:41:06;;;;;;;6.70;5.67;;;;;;;11.10;100.00;100554.59;5240823;28;20116;-68
2022/04/05 11:43:44;;;;;;;8.18;7.30;;;;;;;10.99;100.00;100547.53;5240261;28;20288;-68
2022/04/05 11:46:18;;;;;;;17.35;15.02;;;;;;;11.09;100.00;100555.72;5240099;28;20021;-67
2022/04/05 11:48:52;;;;;;;24.83;22.10;;;;;;;11.14;100.00;100547.31;5240133;28;20021;-67
2022/04/05 11:51:34;;;;;;;5.53;5.00;;;;;;;11.14;100.00;100543.72;5239715;28;20025;-67
2022/04/05 11:54:14;;;;;;;9.30;6.38;;;;;;;11.20;100.00;100543.34;5239771;28;20480;-67
2022/04/05 11:56:45;;;;;;;6.80;5.22;;;;;;;11.18;100.00;100547.56;5234970;28;20469;-67
2022/04/05 11:59:18;;;;;;;6.93;5.55;;;;;;;11.05;100.00;100547.19;5239286;28;20057;-66
2022/04/05 12:01:50;;;;;;;7.65;5.72;;;;;;;10.95;100.00;100540.97;5240665;28;20469;-67
2022/04/05 12:04:22;;;;;;;6.78;5.45;;;;;;;10.85;100.00;100550.25;5248985;28;20025;-68
2022/04/05 12:07:01;;;;;;;6.22;5.30;;;;;;;10.90;100.00;100549.34;5240175;28;20075;-68
2022/04/05 12:09:34;;;;;;;6.78;5.40;;;;;;;10.85;100.00;100548.28;5238462;28;20397;-71
2022/04/05 12:12:08;;;;;;;8.27;6.18;;;;;;;10.87;100.00;100545.22;5238413;28;20025;-70
2022/04/05 12:14:39;;;;;;;8.68;5.95;;;;;;;10.86;100.00;100538.00;5231865;28;20033;-69
2022/04/05 12:17:11;;;;;;;6.50;5.25;;;;;;;10.88;100.00;100547.69;5239320;28;20026;-69
2022/04/05 12:19:42;;;;;;;8.10;5.97;;;;;;;10.93;100.00;100540.44;5238559;28;20108;-69
2022/04/05 12:22:18;;;;;;;6.32;5.68;;;;;;;10.94;100.00;100542.06;5247181;28;20048;-68
2022/04/05 12:24:51;;;;;;;6.97;5.88;;;;;;;10.94;100.00;100544.84;5239923;28;20044;-68
2022/04/05 12:27:24;;;;;;;9.10;6.18;;;;;;;10.97;100.00;100545.09;5239273;28;20038;-69
2022/04/05 12:30:00;;;;;;;8.10;6.45;;;;;;;10.96;100.00;100546.19;5239991;28;20460;-68
2022/04/05 12:32:37;;;;;;;19.63;16.70;;;;;;;11.01;100.00;100539.75;5240145;28;20495;-68
2022/04/05 12:35:09;;;;;;;14.68;13.18;;;;;;;11.05;100.00;100535.25;5231890;28;20041;-69
2022/04/05 12:37:41;;;;;;;7.30;6.53;;;;;;;11.12;100.00;100538.50;5239549;28;20498;-69
2022/04/05 12:40:22;;;;;;;7.20;6.40;;;;;;;11.19;100.00;100546.41;5239567;28;20033;-68
2022/04/05 12:42:54;;;;;;;10.48;6.47;;;;;;;11.20;100.00;100542.53;5241746;28;20083;-68
2022/04/05 12:45:29;;;;;;;7.28;6.30;;;;;;;11.24;100.00;100543.56;5242724;28;20025;-69
2022/04/05 12:48:14;;;;;;;7.40;5.70;;;;;;;11.25;100.00;100545.22;5242297;28;20383;-68
2022/04/05 12:50:51;;;;;;;6.50;5.90;;;;;;;11.28;100.00;100548.22;5244313;28;20108;-69
2022/04/05 12:53:33;;;;;;;7.90;5.57;;;;;;;11.35;100.00;100552.56;5236610;28;20113;-75
2022/04/05 12:56:09;;;;;;;7.90;5.35;;;;;;;11.35;99.02;100544.22;5243420;28;20029;-71
2022/04/05 12:58:46;;;;;;;6.63;5.32;;;;;;;11.37;98.14;100550.31;5242871;28;20057;-71
2022/04/05 13:01:24;;;;;;;5.68;4.60;;;;;;;11.39;97.88;100540.53;5242034;28;20029;-68
2022/04/05 13:04:03;;;;;;;6.00;5.15;;;;;;;11.38;96.65;100549.19;5243689;28;20029;-73
2022/04/05 13:06:34;;;;;;;5.15;4.65;;;;;;;11.37;96.65;100547.53;5240409;28;20021;-70
2022/04/05 13:09:14;;;;;;;6.88;4.55;;;;;;;11.32;96.48;100552.06;5242821;28;20511;-69
2022/04/05 13:11:45;;;;;;;6.55;4.35;;;;;;;11.33;97.98;100533.44;5240066;28;20117;-70
2022/04/05 13:14:17;;;;;;;4.70;4.20;;;;;;;11.26;97.83;100535.75;5238823;28;20112;-69
2022/04/05 13:16:59;;;;;;;5.82;4.63;;;;;;;11.20;98.44;100532.25;5245638;28;20033;-69
2022/04/05 13:19:31;;;;;;;9.05;5.45;;;;;;;11.21;99.36;100536.66;5245012;28;20057;-69
2022/04/05 13:22:11;;;;;;;5.68;5.13;;;;;;;11.16;100.00;100535.94;5243296;28;20404;-71
2022/04/05 13:24:44;;;;;;;6.72;5.50;;;;;;;11.18;100.00;100533.69;5243041;28;20029;-70
2022/04/05 13:27:21;;;;;;;6.18;5.57;;;;;;;11.14;100.00;100538.16;5243386;28;20108;-69
2022/04/05 13:29:52;;;;;;;6.47;5.88;;;;;;;11.15;100.00;100532.34;5242208;28;20491;-68
2022/04/05 13:32:24;;;;;;;7.93;6.07;;;;;;;11.15;100.00;100532.34;5243191;28;20025;-68
2022/04/05 13:34:55;;;;;;;6.72;6.13;;;;;;;11.14;100.00;100539.00;5242386;28;20354;-70
2022/04/05 13:37:27;;;;;;;8.02;6.47;;;;;;;11.04;100.00;100534.44;5241969;28;20107;-70
2022/04/05 13:40:00;;;;;;;6.95;6.20;;;;;;;11.01;100.00;100523.09;5242668;28;20048;-69
2022/04/05 13:42:33;;;;;;;6.43;5.78;;;;;;;11.04;100.00;100528.03;5237500;28;20095;-69
2022/04/05 13:45:05;;;;;;;9.77;7.25;;;;;;;11.05;100.00;100538.03;5243359;28;20025;-69
2022/04/05 13:47:36;;;;;;;6.70;6.10;;;;;;;11.14;100.00;100532.63;5241415;28;20574;-70
2022/04/05 13:50:09;;;;;;;6.85;6.25;;;;;;;11.12;100.00;100526.53;5236480;28;20639;-70
2022/04/05 13:52:40;;;;;;;8.40;6.57;;;;;;;11.08;100.00;100529.09;5240702;28;20044;-68
2022/04/05 13:55:12;;;;;;;6.45;5.85;;;;;;;11.17;100.00;100530.09;5241309;28;20037;-69
2022/04/05 13:57:44;;;;;;;6.97;6.05;;;;;;;11.12;100.00;100541.25;5240615;28;20488;-68
2022/04/05 14:00:15;;;;;;;8.02;5.30;;;;;;;11.18;100.00;100533.69;5241222;28;20068;-69
2022/04/05 14:02:47;;;;;;;6.93;5.85;;;;;;;10.83;100.00;100533.06;5241686;28;20508;-68
2022/04/05 14:05:19;;;;;;;7.43;6.68;;;;;;;10.97;100.00;100538.72;5239992;28;20065;-68
2022/04/05 14:07:50;;;;;;;5.82;5.22;;;;;;;10.91;100.00;100526.84;5241664;28;20038;-69
2022/04/05 14:10:21;;;;;;;6.78;5.75;;;;;;;10.88;100.00;100536.59;5241673;28;20036;-69
2022/04/05 14:12:53;;;;;;;14.90;13.30;;;;;;;10.86;100.00;100533.31;5245797;28;20405;-69
2022/04/05 14:15:24;;;;;;;10.05;6.65;;;;;;;10.86;100.00;100527.78;5241563;28;20053;-69
2022/04/05 14:17:55;;;;;;;7.28;6.28;;;;;;;10.76;100.00;100533.47;5241821;28;20112;-68
2022/04/05 14:20:27;;;;;;;9.93;7.07;;;;;;;10.91;100.00;100526.03;5241235;28;20129;-67
2022/04/05 14:22:58;;;;;;;9.10;6.38;;;;;;;11.00;100.00;100529.78;5241638;28;20029;-70
2022/04/05 14:25:29;;;;;;;6.57;5.97;;;;;;;10.93;100.00;100512.69;5240603;28;20055;-69
2022/04/05 14:28:01;;;;;;;7.40;6.70;;;;;;;10.90;100.00;100516.88;5242194;28;20052;-70
2022/04/05 14:30:33;;;;;;;9.25;6.57;;;;;;;10.98;100.00;100505.09;5241747;28;20468;-69
2022/04/05 14:33:04;;;;;;;7.25;6.35;;;;;;;11.09;100.00;100505.75;5240474;28;20073;-69
2022/04/05 14:35:36;;;;;;;7.13;6.40;;;;;;;11.21;100.00;100500.59;5239171;28;20044;-69
2022/04/05 14:38:07;;;;;;;8.77;7.95;;;;;;;11.19;100.00;100505.59;5241790;28;20060;-70
2022/04/05 14:40:39;;;;;;;8.63;7.72;;;;;;;11.30;100.00;100509.88;5240274;28;20069;-69
2022/04/05 14:43:11;;;;;;;8.85;7.18;;;;;;;11.25;99.50;100496.09;5241596;28;20029;-69
2022/04/05 14:45:42;;;;;;;8.48;7.40;;;;;;;11.29;98.16;100491.56;5240442;28;20036;-69
2022/04/05 14:48:13;;;;;;;11.02;8.90;;;;;;;11.39;98.94;100500.84;5240146;28;20124;-70
2022/04/05 14:50:45;;;;;;;9.27;6.72;;;;;;;11.48;99.52;100510.16;5241762;28;20113;-69
2022/04/05 14:53:17;;;;;;;8.88;6.78;;;;;;;11.47;97.18;100491.81;5248882;28;20021;-69
2022/04/05 14:55:48;;;;;;;7.78;6.57;;;;;;;11.52;97.55;100491.72;5240891;28;20027;-69
2022/04/05 14:58:20;;;;;;;7.55;6.82;;;;;;;11.58;96.99;100490.53;5239471;28;20124;-69
2022/04/05 15:00:51;;;;;;;7.20;6.40;;;;;;;11.67;97.75;100483.13;5239569;28;20036;-69
2022/04/05 15:03:22;;;;;;;8.23;6.50;;;;;;;11.68;95.85;100487.56;5239259;28;20040;-70
2022/04/05 15:05:54;;;;;;;8.60;7.82;;;;;;;11.67;94.58;100477.56;5241277;28;20036;-69
2022/04/05 15:08:25;;;;;;;11.23;9.80;;;;;;;11.72;94.38;100469.13;5239275;28;20044;-69
2022/04/05 15:10:56;;;;;;;8.25;7.45;;;;;;;11.70;94.00;100482.50;5240528;28;20029;-69
2022/04/05 15:13:33;;;;;;;45.85;41.35;;;;;;;11.75;93.68;100478.81;5238855;28;20040;-68
2022/04/05 15:16:04;;;;;;;16.33;13.55;;;;;;;11.74;94.17;100478.00;5231995;28;20040;-69
2022/04/05 15:18:37;;;;;;;8.00;6.78;;;;;;;11.74;92.37;100471.63;5240667;28;20379;-68
2022/04/05 15:21:08;;;;;;;6.85;5.95;;;;;;;11.73;92.68;100475.50;5240432;28;20033;-68
2022/04/05 15:23:40;;;;;;;7.03;5.93;;;;;;;11.74;93.61;100477.19;5239271;28;20115;-69
2022/04/05 15:26:12;;;;;;;7.15;6.45;;;;;;;11.70;93.02;100487.25;5240820;28;20203;-67
2022/04/05 15:28:44;;;;;;;7.22;6.50;;;;;;;11.69;94.16;100472.53;5239856;28;20112;-67
2022/04/05 15:31:15;;;;;;;9.93;6.78;;;;;;;11.66;92.56;100481.50;5240636;28;20040;-67
2022/04/05 15:33:46;;;;;;;7.85;7.05;;;;;;;11.64;92.72;100475.41;5240609;28;20136;-68
2022/04/05 15:36:18;;;;;;;7.47;6.78;;;;;;;11.69;92.34;100480.06;5238887;28;20136;-67
2022/04/05 15:38:49;;;;;;;7.85;7.00;;;;;;;11.64;91.01;100483.75;5231073;28;20029;-69
2022/04/05 15:41:22;;;;;;;8.02;6.70;;;;;;;11.63;89.40;100482.13;5240388;28;20025;-69
2022/04/05 15:43:53;;;;;;;8.75;6.47;;;;;;;11.58;89.26;100468.31;5238565;28;20481;-68
2022/04/05 15:46:25;;;;;;;7.75;7.05;;;;;;;11.63;89.10;100471.00;5240265;28;20040;-68
2022/04/05 15:48:56;;;;;;;7.85;7.10;;;;;;;11.61;88.48;100455.78;5240083;28;20361;-68
2022/04/05 15:51:29;;;;;;;8.82;7.95;;;;;;;11.67;89.33;100452.56;5239713;28;20040;-67
2022/04/05 15:54:00;;;;;;;6.95;6.35;;;;;;;11.64;88.48;100455.16;5240133;28;20022;-68
2022/04/05 15:56:31;;;;;;;9.38;7.13;;;;;;;11.65;87.73;100460.38;5240109;28;20056;-69
2022/04/05 15:59:03;;;;;;;7.72;7.00;;;;;;;11.67;87.17;100452.56;5239552;28;20056;-67
2022/04/05 16:01:34;;;;;;;8.50;7.75;;;;;;;11.64;85.62;100450.41;5240284;28;20439;-68
2022/04/05 16:04:05;;;;;;;7.88;7.07;;;;;;;11.67;86.54;100449.78;5239383;28;20034;-68
2022/04/05 16:06:36;;;;;;;7.97;7.18;;;;;;;11.81;86.34;100447.06;5239975;28;20026;-68
2022/04/05 16:09:08;;;;;;;8.35;7.47;;;;;;;11.78;86.49;100457.94;5232431;28;20042;-67
2022/04/05 16:11:42;;;;;;;20.77;18.63;;;;;;;11.73;85.68;100448.59;5235435;28;20037;-68
2022/04/05 16:14:16;;;;;;;8.63;7.75;;;;;;;11.70;85.82;100446.41;5236539;28;20033;-68
2022/04/05 16:16:47;;;;;;;8.88;7.97;;;;;;;11.71;85.81;100448.06;5238972;28;20104;-67
2022/04/05 16:19:18;;;;;;;9.43;7.30;;;;;;;11.75;85.88;100453.81;5239787;28;20163;-66
2022/04/05 16:21:50;;;;;;;9.00;7.45;;;;;;;11.69;85.92;100449.50;5244862;28;20025;-67
2022/04/05 16:24:22;;;;;;;10.05;7.07;;;;;;;11.72;85.48;100449.69;5244281;28;20043;-66
2022/04/05 16:26:53;;;;;;;7.75;6.80;;;;;;;11.65;85.26;100460.38;5242989;28;20038;-67
2022/04/05 16:29:28;;;;;;;8.32;7.43;;;;;;;11.63;86.03;100451.56;5244006;28;20034;-67
2022/04/05 16:31:59;;;;;;;8.65;6.78;;;;;;;11.60;84.78;100446.59;5243023;28;20152;-67
2022/04/05 16:34:30;;;;;;;8.40;7.50;;;;;;;11.65;86.04;100449.28;5242916;28;20081;-68
2022/04/05 16:37:02;;;;;;;9.50;7.45;;;;;;;11.54;85.16;100445.88;5239673;28;20468;-69
2022/04/05 16:39:34;;;;;;;8.80;6.75;;;;;;;11.56;85.73;100442.78;5242751;28;20102;-67
2022/04/05 16:42:05;;;;;;;7.43;6.72;;;;;;;11.49;85.74;100445.97;5244002;28;20030;-68
2022/04/05 16:44:37;;;;;;;8.13;6.18;;;;;;;11.57;86.49;100441.66;5242462;28;20029;-67
2022/04/05 16:47:08;;;;;;;11.95;7.88;;;;;;;11.51;87.16;100440.09;5243183;28;20037;-67
2022/04/05 16:49:40;;;;;;;8.20;7.40;;;;;;;11.52;86.56;100444.53;5242048;28;20389;-69
2022/04/05 16:52:11;;;;;;;8.77;7.88;;;;;;;11.48;87.09;100454.63;5237477;28;20540;-68
2022/04/05 16:54:42;;;;;;;8.40;7.57;;;;;;;11.39;87.90;100453.66;5241836;28;20060;-68
2022/04/05 16:57:14;;;;;;;8.20;7.40;;;;;;;11.32;88.87;100457.66;5243608;28;20443;-68
2022/04/05 16:59:45;;;;;;;8.02;7.20;;;;;;;11.36;90.13;100454.28;5243842;28;20032;-67
2022/04/05 17:02:16;;;;;;;9.43;7.82;;;;;;;11.35;91.00;100455.38;5242174;28;20439;-70
2022/04/05 17:04:48;;;;;;;11.65;9.40;;;;;;;11.25;91.90;100454.44;5242555;28;20467;-69
2022/04/05 17:07:19;;;;;;;10.98;9.05;;;;;;;11.18;93.40;100455.97;5240291;28;20109;-70
2022/04/05 17:09:51;;;;;;;11.18;8.48;;;;;;;10.95;94.45;100457.72;5242850;28;20030;-70
2022/04/05 17:12:23;;;;;;;10.80;9.73;;;;;;;10.92;96.22;100463.88;5240039;28;20098;-70
2022/04/05 17:14:54;;;;;;;10.73;9.63;;;;;;;10.81;97.27;100464.03;5242582;28;20040;-70
2022/04/05 17:17:25;;;;;;;11.93;9.07;;;;;;;10.86;97.54;100446.47;5242990;28;20048;-70
2022/04/05 17:19:56;;;;;;;10.35;9.35;;;;;;;10.78;98.96;100453.53;5242441;28;20053;-70
2022/04/05 17:22:28;;;;;;;13.32;10.40;;;;;;;10.81;98.95;100452.94;5242614;28;20041;-70
2022/04/05 17:25:01;;;;;;;11.30;10.05;;;;;;;10.76;99.66;100460.50;5242244;28;20029;-70
2022/04/05 17:27:32;;;;;;;17.88;15.43;;;;;;;10.77;100.00;100451.06;5243397;28;20025;-71
2022/04/05 17:30:04;;;;;;;12.07;10.68;;;;;;;10.74;100.00;100446.94;5241283;28;20076;-70
